createdAt,value
2018-10-06T00:00:17.083Z,82.23
2018-10-06T00:01:17.063Z,81.93
2018-10-06T00:02:17.056Z,82.03
2018-10-06T00:03:17.067Z,81.72
2018-10-06T00:04:17.033Z,81.82
2018-10-06T00:05:17.013Z,81.86
2018-10-06T00:06:17.081Z,81.15
2018-10-06T00:07:16.992Z,81.76
2018-10-06T00:08:16.993Z,81.96
2018-10-06T00:09:16.979Z,81.15
2018-10-06T00:10:16.962Z,81.76
2018-10-06T00:11:16.985Z,81.96
2018-10-06T00:12:16.962Z,81.56
2018-10-06T00:13:16.938Z,82.00
2018-10-06T00:14:16.918Z,82.37
2018-10-06T00:15:16.904Z,81.96
2018-10-06T00:16:16.909Z,82.37
2018-10-06T00:17:16.919Z,82.31
2018-10-06T00:18:16.882Z,82.51
2018-10-06T00:19:16.860Z,82.82
2018-10-06T00:20:16.845Z,82.82
2018-10-06T00:21:16.873Z,82.82
2018-10-06T00:22:16.936Z,83.26
2018-10-06T00:23:16.821Z,83.26
2018-10-06T00:24:16.837Z,83.06
2018-10-06T00:25:16.790Z,83.16
2018-10-06T00:26:16.777Z,83.16
2018-10-06T00:27:16.928Z,84.01
2018-10-06T00:28:16.803Z,83.78
2018-10-06T00:29:16.745Z,84.42
2018-10-06T00:30:16.742Z,84.22
2018-10-06T00:31:16.763Z,84.01
2018-10-06T00:32:16.758Z,84.18
2018-10-06T00:33:16.714Z,84.33
2018-10-06T00:34:16.694Z,84.08
2018-10-06T00:35:16.683Z,84.12
2018-10-06T00:36:16.687Z,83.98
2018-10-06T00:37:16.795Z,84.08
2018-10-06T00:38:16.652Z,84.74
2018-10-06T00:39:16.638Z,84.74
2018-10-06T00:40:16.632Z,84.22
2018-10-06T00:41:16.613Z,84.33
2018-10-06T00:42:16.647Z,84.12
2018-10-06T00:43:16.596Z,84.63
2018-10-06T00:44:16.597Z,84.63
2018-10-06T00:45:16.583Z,84.83
2018-10-06T00:46:16.569Z,84.88
2018-10-06T00:47:16.645Z,85.14
2018-10-06T00:48:16.540Z,84.67
2018-10-06T00:49:16.536Z,85.38
2018-10-06T00:50:16.536Z,85.89
2018-10-06T00:51:16.533Z,85.28
2018-10-06T00:52:16.504Z,85.49
2018-10-06T00:53:16.486Z,85.69
2018-10-06T00:54:16.471Z,85.38
2018-10-06T00:55:16.498Z,85.49
2018-10-06T00:56:16.489Z,85.59
2018-10-06T00:57:16.476Z,85.38
2018-10-06T00:58:16.435Z,85.18
2018-10-06T00:59:16.418Z,85.08
2018-10-06T01:00:16.415Z,85.08
2018-10-06T01:01:16.395Z,85.28
2018-10-06T01:02:16.435Z,85.38
2018-10-06T01:03:16.371Z,85.59
2018-10-06T01:04:16.360Z,85.53
2018-10-06T01:05:16.386Z,85.79
2018-10-06T01:06:16.365Z,85.94
2018-10-06T01:07:16.326Z,85.63
2018-10-06T01:08:16.340Z,85.42
2018-10-06T01:09:16.327Z,85.42
2018-10-06T01:10:16.293Z,86.04
2018-10-06T01:11:16.286Z,85.73
2018-10-06T01:12:16.279Z,85.94
2018-10-06T01:13:16.289Z,85.94
2018-10-06T01:14:16.262Z,85.73
2018-10-06T01:15:16.234Z,85.53
2018-10-06T01:16:16.265Z,85.94
2018-10-06T01:17:16.213Z,86.24
2018-10-06T01:18:16.234Z,85.42
2018-10-06T01:19:16.200Z,85.94
2018-10-06T01:20:16.198Z,86.44
2018-10-06T01:21:16.203Z,86.35
2018-10-06T01:22:16.162Z,85.73
2018-10-06T01:23:16.190Z,86.35
2018-10-06T01:24:16.136Z,86.35
2018-10-06T01:25:16.131Z,86.04
2018-10-06T01:26:16.157Z,86.79
2018-10-06T01:27:16.141Z,86.04
2018-10-06T01:28:16.095Z,86.04
2018-10-06T01:29:16.088Z,86.38
2018-10-06T01:30:16.077Z,86.18
2018-10-06T01:31:16.062Z,86.38
2018-10-06T01:32:16.093Z,86.59
2018-10-06T01:33:16.044Z,86.29
2018-10-06T01:34:16.038Z,86.79
2018-10-06T01:35:16.040Z,86.79
2018-10-06T01:36:16.004Z,86.38
2018-10-06T01:37:15.999Z,86.49
2018-10-06T01:38:15.995Z,86.79
2018-10-06T01:39:15.969Z,86.69
2018-10-06T01:40:15.983Z,86.69
2018-10-06T01:41:15.995Z,86.59
2018-10-06T01:42:15.942Z,86.29
2018-10-06T01:43:15.941Z,86.49
2018-10-06T01:44:15.928Z,87.30
2018-10-06T01:45:15.930Z,87.20
2018-10-06T01:46:15.897Z,86.73
2018-10-06T01:47:15.880Z,87.55
2018-10-06T01:48:15.868Z,87.55
2018-10-06T01:49:15.861Z,87.35
2018-10-06T01:50:15.896Z,87.55
2018-10-06T01:51:15.835Z,87.30
2018-10-06T01:52:15.828Z,87.76
2018-10-06T01:53:15.857Z,87.24
2018-10-06T01:54:15.816Z,87.65
2018-10-06T01:55:15.794Z,87.45
2018-10-06T01:56:15.790Z,87.24
2018-10-06T01:57:15.809Z,86.94
2018-10-06T01:58:15.858Z,87.45
2018-10-06T01:59:15.776Z,87.55
2018-10-06T02:00:15.733Z,87.65
2018-10-06T02:01:15.726Z,87.76
2018-10-06T02:02:15.718Z,87.45
2018-10-06T02:03:15.745Z,87.90
2018-10-06T02:04:15.690Z,87.55
2018-10-06T02:05:15.683Z,87.79
2018-10-06T02:06:15.717Z,87.79
2018-10-06T02:07:15.690Z,88.31
2018-10-06T02:08:15.668Z,88.41
2018-10-06T02:09:15.645Z,88.62
2018-10-06T02:10:15.626Z,87.90
2018-10-06T02:11:15.652Z,88.10
2018-10-06T02:12:15.604Z,87.79
2018-10-06T02:13:15.620Z,88.20
2018-10-06T02:14:15.611Z,88.10
2018-10-06T02:15:15.601Z,88.51
2018-10-06T02:16:15.561Z,88.56
2018-10-06T02:17:15.583Z,88.65
2018-10-06T02:18:15.536Z,88.62
2018-10-06T02:19:15.527Z,88.62
2018-10-06T02:20:15.518Z,88.56
2018-10-06T02:21:15.503Z,88.71
2018-10-06T02:22:15.595Z,88.65
2018-10-06T02:23:15.524Z,88.71
2018-10-06T02:24:15.595Z,88.41
2018-10-06T02:25:15.461Z,88.35
2018-10-06T02:26:15.469Z,88.82
2018-10-06T02:27:15.449Z,88.71
2018-10-06T02:28:15.422Z,88.41
2018-10-06T02:29:15.442Z,88.62
2018-10-06T02:30:15.547Z,88.41
2018-10-06T02:31:15.397Z,88.17
2018-10-06T02:32:15.384Z,88.10
2018-10-06T02:33:15.369Z,88.62
2018-10-06T02:34:15.393Z,87.70
2018-10-06T02:35:15.347Z,87.70
2018-10-06T02:36:15.337Z,88.31
2018-10-06T02:37:15.374Z,88.62
2018-10-06T02:38:15.333Z,88.31
2018-10-06T02:39:15.302Z,88.71
2018-10-06T02:40:15.331Z,88.71
2018-10-06T02:41:15.286Z,88.31
2018-10-06T02:42:15.277Z,88.56
2018-10-06T02:43:15.271Z,88.51
2018-10-06T02:44:15.244Z,89.27
2018-10-06T02:45:15.263Z,88.51
2018-10-06T02:46:15.279Z,88.62
2018-10-06T02:47:15.212Z,88.04
2018-10-06T02:48:15.204Z,88.76
2018-10-06T02:49:15.233Z,89.23
2018-10-06T02:50:15.182Z,89.03
2018-10-06T02:51:15.171Z,89.03
2018-10-06T02:52:15.251Z,89.12
2018-10-06T02:53:15.149Z,89.03
2018-10-06T02:54:15.133Z,89.03
2018-10-06T02:55:15.146Z,88.86
2018-10-06T02:56:15.112Z,89.03
2018-10-06T02:57:15.139Z,88.82
2018-10-06T02:58:15.090Z,88.62
2018-10-06T02:59:15.088Z,89.17
2018-10-06T03:00:15.079Z,88.65
2018-10-06T03:01:15.080Z,89.33
2018-10-06T03:02:15.094Z,88.62
2018-10-06T03:03:15.041Z,88.65
2018-10-06T03:04:15.032Z,88.71
2018-10-06T03:05:15.016Z,88.76
2018-10-06T03:06:15.034Z,89.27
2018-10-06T03:07:15.012Z,88.76
2018-10-06T03:08:14.983Z,88.96
2018-10-06T03:09:14.971Z,89.03
2018-10-06T03:10:14.958Z,88.62
2018-10-06T03:11:14.991Z,88.71
2018-10-06T03:12:14.944Z,88.86
2018-10-06T03:13:14.957Z,88.71
2018-10-06T03:14:14.920Z,89.33
2018-10-06T03:15:14.902Z,88.71
2018-10-06T03:16:14.922Z,88.65
2018-10-06T03:17:14.897Z,88.76
2018-10-06T03:18:14.885Z,88.56
2018-10-06T03:19:14.869Z,88.65
2018-10-06T03:20:14.881Z,88.35
2018-10-06T03:21:14.860Z,88.76
2018-10-06T03:22:14.827Z,88.96
2018-10-06T03:23:14.868Z,88.86
2018-10-06T03:24:14.820Z,88.96
2018-10-06T03:25:14.800Z,88.76
2018-10-06T03:26:14.801Z,88.96
2018-10-06T03:27:14.781Z,88.86
2018-10-06T03:28:14.802Z,89.06
2018-10-06T03:29:14.773Z,89.06
2018-10-06T03:30:14.778Z,89.17
2018-10-06T03:31:14.762Z,89.17
2018-10-06T03:32:14.730Z,89.17
2018-10-06T03:33:14.706Z,89.06
2018-10-06T03:34:14.701Z,88.86
2018-10-06T03:35:14.714Z,89.37
2018-10-06T03:36:14.686Z,89.17
2018-10-06T03:37:14.663Z,89.06
2018-10-06T03:38:14.674Z,89.12
2018-10-06T03:39:14.673Z,89.23
2018-10-06T03:40:14.636Z,89.37
2018-10-06T03:41:14.618Z,89.12
2018-10-06T03:42:14.621Z,88.82
2018-10-06T03:43:14.629Z,89.17
2018-10-06T03:44:14.625Z,89.17
2018-10-06T03:45:15.281Z,88.82
2018-10-06T03:46:14.590Z,89.03
2018-10-06T03:47:14.596Z,88.86
2018-10-06T03:48:14.574Z,88.62
2018-10-06T03:49:14.535Z,89.12
2018-10-06T03:50:14.528Z,88.62
2018-10-06T03:51:14.512Z,89.03
2018-10-06T03:52:14.548Z,88.92
2018-10-06T03:53:14.531Z,88.92
2018-10-06T03:54:14.474Z,88.92
2018-10-06T03:55:14.464Z,89.03
2018-10-06T03:56:14.452Z,88.98
2018-10-06T03:57:14.448Z,88.92
2018-10-06T03:58:14.468Z,89.03
2018-10-06T03:59:14.456Z,88.71
2018-10-06T04:00:14.414Z,88.62
2018-10-06T04:01:14.403Z,89.29
2018-10-06T04:02:14.424Z,89.59
2018-10-06T04:03:14.378Z,89.09
2018-10-06T04:04:14.407Z,89.50
2018-10-06T04:05:14.398Z,88.78
2018-10-06T04:06:14.345Z,88.47
2018-10-06T04:07:14.372Z,88.68
2018-10-06T04:08:14.358Z,88.47
2018-10-06T04:09:14.312Z,88.57
2018-10-06T04:10:14.303Z,88.57
2018-10-06T04:11:14.297Z,88.37
2018-10-06T04:12:14.317Z,88.26
2018-10-06T04:13:14.271Z,88.57
2018-10-06T04:14:14.257Z,88.47
2018-10-06T04:15:14.242Z,88.26
2018-10-06T04:16:14.229Z,88.57
2018-10-06T04:17:14.256Z,88.37
2018-10-06T04:18:14.212Z,87.85
2018-10-06T04:19:14.209Z,87.76
2018-10-06T04:20:14.239Z,88.37
2018-10-06T04:21:14.182Z,88.31
2018-10-06T04:22:14.210Z,88.98
2018-10-06T04:23:14.180Z,88.62
2018-10-06T04:24:14.172Z,88.68
2018-10-06T04:25:14.161Z,88.62
2018-10-06T04:26:14.122Z,88.41
2018-10-06T04:27:14.108Z,88.31
2018-10-06T04:28:14.170Z,88.62
2018-10-06T04:29:14.133Z,88.51
2018-10-06T04:30:14.080Z,88.31
2018-10-06T04:31:14.064Z,88.82
2018-10-06T04:32:14.052Z,88.62
2018-10-06T04:33:14.050Z,88.62
2018-10-06T04:34:14.067Z,88.62
2018-10-06T04:35:14.057Z,88.65
2018-10-06T04:36:14.012Z,88.56
2018-10-06T04:37:14.027Z,88.65
2018-10-06T04:38:13.994Z,88.62
2018-10-06T04:39:13.992Z,88.56
2018-10-06T04:40:13.964Z,88.56
2018-10-06T04:41:13.971Z,88.31
2018-10-06T04:42:13.987Z,88.71
2018-10-06T04:43:13.945Z,89.06
2018-10-06T04:44:13.927Z,88.65
2018-10-06T04:45:13.910Z,89.06
2018-10-06T04:46:13.904Z,88.96
2018-10-06T04:47:13.923Z,88.86
2018-10-06T04:48:13.884Z,88.96
2018-10-06T04:49:13.895Z,89.17
2018-10-06T04:50:13.856Z,89.11
2018-10-06T04:51:13.849Z,89.11
2018-10-06T04:52:13.849Z,89.11
2018-10-06T04:53:13.960Z,88.86
2018-10-06T04:54:13.822Z,89.11
2018-10-06T04:55:13.796Z,89.11
2018-10-06T04:56:13.792Z,89.31
2018-10-06T04:57:13.782Z,89.11
2018-10-06T04:58:13.802Z,89.58
2018-10-06T04:59:13.776Z,89.31
2018-10-06T05:00:13.769Z,89.27
2018-10-06T05:01:13.775Z,90.23
2018-10-06T05:02:13.728Z,90.03
2018-10-06T05:03:13.794Z,90.44
2018-10-06T05:04:13.704Z,89.83
2018-10-06T05:05:13.693Z,90.23
2018-10-06T05:06:13.713Z,90.34
2018-10-06T05:07:13.712Z,89.89
2018-10-06T05:08:13.696Z,90.09
2018-10-06T05:09:13.697Z,90.34
2018-10-06T05:10:13.644Z,90.34
2018-10-06T05:11:13.623Z,90.23
2018-10-06T05:12:13.620Z,90.30
2018-10-06T05:13:13.602Z,90.54
2018-10-06T05:14:13.625Z,89.92
2018-10-06T05:15:13.622Z,90.23
2018-10-06T05:16:13.584Z,89.72
2018-10-06T05:17:13.602Z,89.68
2018-10-06T05:18:13.549Z,89.83
2018-10-06T05:19:13.580Z,90.13
2018-10-06T05:20:13.528Z,90.03
2018-10-06T05:21:13.542Z,90.34
2018-10-06T05:22:13.501Z,90.19
2018-10-06T05:23:13.496Z,90.19
2018-10-06T05:24:13.593Z,90.23
2018-10-06T05:25:13.507Z,90.23
2018-10-06T05:26:13.466Z,90.23
2018-10-06T05:27:13.458Z,90.13
2018-10-06T05:28:13.446Z,90.09
2018-10-06T05:29:13.431Z,90.23
2018-10-06T05:30:13.467Z,90.03
2018-10-06T05:31:13.412Z,90.09
2018-10-06T05:32:13.403Z,90.13
2018-10-06T05:33:13.387Z,90.09
2018-10-06T05:34:13.410Z,90.19
2018-10-06T05:35:13.398Z,90.03
2018-10-06T05:36:13.395Z,90.23
2018-10-06T05:37:13.370Z,89.89
2018-10-06T05:38:13.339Z,89.27
2018-10-06T05:39:13.326Z,89.11
2018-10-06T05:40:13.411Z,89.17
2018-10-06T05:41:13.328Z,89.31
2018-10-06T05:42:13.286Z,89.58
2018-10-06T05:43:13.278Z,89.72
2018-10-06T05:44:13.270Z,89.92
2018-10-06T05:45:13.299Z,90.44
2018-10-06T05:46:13.266Z,90.30
2018-10-06T05:47:13.233Z,89.92
2018-10-06T05:48:13.222Z,89.98
2018-10-06T05:49:13.215Z,89.98
2018-10-06T05:50:13.244Z,90.19
2018-10-06T05:51:13.189Z,90.13
2018-10-06T05:52:13.182Z,90.13
2018-10-06T05:53:13.166Z,90.13
2018-10-06T05:54:13.159Z,89.72
2018-10-06T05:55:13.196Z,89.31
2018-10-06T05:56:13.159Z,90.23
2018-10-06T05:57:13.129Z,89.62
2018-10-06T05:58:13.112Z,89.92
2018-10-06T05:59:13.144Z,89.92
2018-10-06T06:00:13.136Z,89.68
2018-10-06T06:01:13.084Z,89.27
2018-10-06T06:02:13.072Z,89.72
2018-10-06T06:03:13.058Z,89.58
2018-10-06T06:04:13.083Z,89.31
2018-10-06T06:05:13.074Z,89.89
2018-10-06T06:06:13.035Z,90.03
2018-10-06T06:07:13.055Z,90.34
2018-10-06T06:08:13.015Z,90.13
2018-10-06T06:09:12.995Z,89.78
2018-10-06T06:10:12.982Z,89.72
2018-10-06T06:11:13.003Z,89.83
2018-10-06T06:12:12.963Z,90.50
2018-10-06T06:13:12.948Z,90.54
2018-10-06T06:14:12.944Z,91.05
2018-10-06T06:15:12.963Z,90.91
2018-10-06T06:16:12.923Z,90.60
2018-10-06T06:17:12.906Z,90.19
2018-10-06T06:18:12.900Z,90.30
2018-10-06T06:19:12.882Z,89.89
2018-10-06T06:20:12.945Z,89.78
2018-10-06T06:21:12.859Z,90.19
2018-10-06T06:22:12.874Z,90.36
2018-10-06T06:23:12.848Z,90.15
2018-10-06T06:24:12.864Z,89.64
2018-10-06T06:25:12.818Z,89.58
2018-10-06T06:26:12.817Z,90.15
2018-10-06T06:27:12.801Z,90.09
2018-10-06T06:28:12.785Z,89.94
2018-10-06T06:29:12.817Z,90.15
2018-10-06T06:30:12.766Z,90.15
2018-10-06T06:31:12.796Z,90.05
2018-10-06T06:32:12.816Z,90.25
2018-10-06T06:33:12.761Z,90.15
2018-10-06T06:34:12.767Z,90.15
2018-10-06T06:35:12.708Z,89.70
2018-10-06T06:36:12.810Z,90.00
2018-10-06T06:37:12.693Z,90.00
2018-10-06T06:38:12.689Z,89.90
2018-10-06T06:39:12.666Z,89.97
2018-10-06T06:40:12.694Z,89.97
2018-10-06T06:41:12.644Z,89.56
2018-10-06T06:42:12.680Z,89.25
2018-10-06T06:43:12.620Z,89.00
2018-10-06T06:44:12.745Z,89.31
2018-10-06T06:45:12.621Z,88.70
2018-10-06T06:46:12.585Z,88.85
2018-10-06T06:47:12.614Z,89.17
2018-10-06T06:48:12.572Z,88.61
2018-10-06T06:49:12.552Z,87.59
2018-10-06T06:50:12.599Z,87.70
2018-10-06T06:51:12.533Z,87.76
2018-10-06T06:52:12.592Z,87.04
2018-10-06T06:53:12.514Z,87.24
2018-10-06T06:54:12.503Z,86.53
2018-10-06T06:55:12.486Z,86.08
2018-10-06T06:56:12.527Z,85.06
2018-10-06T06:57:12.501Z,85.88
2018-10-06T06:58:12.452Z,85.02
2018-10-06T06:59:12.444Z,85.22
2018-10-06T07:00:12.476Z,84.72
2018-10-06T07:01:12.425Z,84.41
2018-10-06T07:02:12.461Z,84.98
2018-10-06T07:03:12.400Z,83.76
2018-10-06T07:04:12.442Z,84.17
2018-10-06T07:05:12.378Z,83.82
2018-10-06T07:06:12.415Z,83.72
2018-10-06T07:07:12.355Z,83.31
2018-10-06T07:08:12.348Z,83.01
2018-10-06T07:09:12.330Z,82.60
2018-10-06T07:10:12.327Z,82.56
2018-10-06T07:11:12.352Z,82.35
2018-10-06T07:12:12.301Z,82.15
2018-10-06T07:13:12.316Z,81.60
2018-10-06T07:14:12.282Z,82.01
2018-10-06T07:15:12.277Z,81.71
2018-10-06T07:16:12.283Z,80.99
2018-10-06T07:17:12.286Z,80.79
2018-10-06T07:18:12.249Z,80.29
2018-10-06T07:19:12.294Z,80.15
2018-10-06T07:20:12.235Z,80.55
2018-10-06T07:21:12.205Z,80.24
2018-10-06T07:22:12.192Z,79.84
2018-10-06T07:23:12.221Z,80.31
2018-10-06T07:24:12.176Z,79.80
2018-10-06T07:25:12.200Z,79.39
2018-10-06T07:26:12.148Z,79.29
2018-10-06T07:27:12.140Z,79.09
2018-10-06T07:28:12.157Z,79.25
2018-10-06T07:29:12.115Z,78.64
2018-10-06T07:30:12.140Z,78.75
2018-10-06T07:31:12.125Z,78.24
2018-10-06T07:32:12.212Z,78.24
2018-10-06T07:33:12.078Z,77.90
2018-10-06T07:34:12.054Z,78.20
2018-10-06T07:35:12.046Z,77.29
2018-10-06T07:36:12.032Z,77.25
2018-10-06T07:37:12.059Z,76.44
2018-10-06T07:38:12.048Z,77.15
2018-10-06T07:39:12.005Z,77.36
2018-10-06T07:40:12.031Z,76.61
2018-10-06T07:41:11.979Z,76.61
2018-10-06T07:42:11.971Z,76.31
2018-10-06T07:43:11.966Z,76.40
2018-10-06T07:44:11.957Z,76.20
2018-10-06T07:45:11.977Z,75.90
2018-10-06T07:46:11.923Z,75.66
2018-10-06T07:47:11.925Z,75.79
2018-10-06T07:48:11.936Z,75.35
2018-10-06T07:49:11.898Z,75.56
2018-10-06T07:50:11.886Z,74.74
2018-10-06T07:51:11.868Z,75.05
2018-10-06T07:52:11.872Z,74.91
2018-10-06T07:53:11.952Z,74.91
2018-10-06T07:54:11.876Z,74.51
2018-10-06T07:55:11.826Z,73.70
2018-10-06T07:56:11.863Z,74.61
2018-10-06T07:57:11.808Z,74.37
2018-10-06T07:58:11.802Z,73.97
2018-10-06T07:59:11.945Z,73.86
2018-10-06T08:00:11.786Z,73.66
2018-10-06T08:01:11.819Z,74.07
2018-10-06T08:02:11.754Z,73.86
2018-10-06T08:03:11.748Z,74.04
2018-10-06T08:04:11.736Z,72.81
2018-10-06T08:05:11.717Z,72.61
2018-10-06T08:06:11.781Z,72.72
2018-10-06T08:07:11.691Z,73.32
2018-10-06T08:08:11.695Z,72.48
2018-10-06T08:09:11.676Z,72.17
2018-10-06T08:10:11.664Z,71.97
2018-10-06T08:11:11.693Z,71.88
2018-10-06T08:12:11.633Z,71.88
2018-10-06T08:13:11.662Z,71.57
2018-10-06T08:14:11.611Z,71.97
2018-10-06T08:15:11.612Z,72.04
2018-10-06T08:16:11.613Z,70.96
2018-10-06T08:17:11.583Z,71.53
2018-10-06T08:18:11.608Z,71.94
2018-10-06T08:19:11.565Z,71.44
2018-10-06T08:20:11.554Z,71.60
2018-10-06T08:21:11.586Z,70.18
2018-10-06T08:22:11.532Z,70.18
2018-10-06T08:23:11.553Z,70.18
2018-10-06T08:24:11.521Z,69.68
2018-10-06T08:25:11.504Z,69.68
2018-10-06T08:26:11.521Z,70.29
2018-10-06T08:27:11.512Z,70.49
2018-10-06T08:28:11.575Z,69.65
2018-10-06T08:29:11.471Z,69.98
2018-10-06T08:30:11.473Z,69.68
2018-10-06T08:31:12.408Z,69.75
2018-10-06T08:32:11.419Z,69.24
2018-10-06T08:33:11.473Z,70.05
2018-10-06T08:34:11.417Z,70.25
2018-10-06T08:35:11.383Z,69.85
2018-10-06T08:36:11.405Z,69.95
2018-10-06T08:37:11.374Z,69.95
2018-10-06T08:38:11.370Z,69.04
2018-10-06T08:39:11.509Z,69.92
2018-10-06T08:40:11.374Z,69.92
2018-10-06T08:41:11.384Z,69.21
2018-10-06T08:42:11.446Z,69.82
2018-10-06T08:43:11.355Z,69.92
2018-10-06T08:44:11.331Z,69.21
2018-10-06T08:45:11.275Z,68.30
2018-10-06T08:46:11.263Z,68.37
2018-10-06T08:47:11.328Z,68.47
2018-10-06T08:48:11.256Z,68.57
2018-10-06T08:49:11.252Z,68.27
2018-10-06T08:50:11.251Z,68.67
2018-10-06T08:51:11.254Z,68.13
2018-10-06T08:52:11.193Z,68.54
2018-10-06T08:53:11.190Z,67.43
2018-10-06T08:54:11.178Z,67.23
2018-10-06T08:55:11.205Z,66.32
2018-10-06T08:56:11.211Z,66.52
2018-10-06T08:57:11.141Z,66.52
2018-10-06T08:58:11.192Z,66.42
2018-10-06T08:59:11.154Z,66.69
2018-10-06T09:00:11.136Z,65.78
2018-10-06T09:01:11.098Z,65.48
2018-10-06T09:02:11.087Z,65.68
2018-10-06T09:03:11.083Z,65.99
2018-10-06T09:04:11.120Z,65.58
2018-10-06T09:05:11.094Z,64.87
2018-10-06T09:06:11.043Z,65.48
2018-10-06T09:07:11.029Z,65.55
2018-10-06T09:08:11.017Z,65.38
2018-10-06T09:09:11.004Z,65.25
2018-10-06T09:10:11.026Z,65.45
2018-10-06T09:11:10.980Z,65.38
2018-10-06T09:12:10.974Z,65.65
2018-10-06T09:13:10.963Z,65.85
2018-10-06T09:14:10.956Z,65.55
2018-10-06T09:15:10.986Z,64.95
2018-10-06T09:16:10.935Z,64.84
2018-10-06T09:17:10.914Z,65.45
2018-10-06T09:18:10.914Z,65.32
2018-10-06T09:19:10.907Z,65.35
2018-10-06T09:20:10.913Z,64.92
2018-10-06T09:21:10.872Z,64.31
2018-10-06T09:22:10.920Z,64.51
2018-10-06T09:23:10.854Z,64.81
2018-10-06T09:24:10.849Z,64.11
2018-10-06T09:25:10.861Z,64.92
2018-10-06T09:26:10.817Z,64.69
2018-10-06T09:27:10.803Z,64.38
2018-10-06T09:28:10.824Z,63.90
2018-10-06T09:29:10.780Z,64.48
2018-10-06T09:30:10.805Z,64.48
2018-10-06T09:31:10.782Z,63.87
2018-10-06T09:32:10.758Z,64.18
2018-10-06T09:33:10.788Z,63.85
2018-10-06T09:34:10.738Z,64.05
2018-10-06T09:35:10.721Z,63.78
2018-10-06T09:36:10.708Z,63.54
2018-10-06T09:37:10.705Z,63.24
2018-10-06T09:38:10.721Z,63.14
2018-10-06T09:39:10.707Z,63.34
2018-10-06T09:40:10.682Z,63.24
2018-10-06T09:41:10.674Z,62.84
2018-10-06T09:42:10.813Z,63.34
2018-10-06T09:43:10.635Z,63.24
2018-10-06T09:44:10.622Z,63.14
2018-10-06T09:45:10.610Z,62.84
2018-10-06T09:46:10.602Z,62.71
2018-10-06T09:47:10.702Z,63.01
2018-10-06T09:48:10.652Z,62.71
2018-10-06T09:49:10.566Z,62.41
2018-10-06T09:50:10.582Z,62.91
2018-10-06T09:51:10.540Z,62.61
2018-10-06T09:52:10.565Z,62.27
2018-10-06T09:53:10.530Z,62.38
2018-10-06T09:54:10.512Z,62.27
2018-10-06T09:55:10.533Z,62.18
2018-10-06T09:56:10.486Z,61.57
2018-10-06T09:57:10.479Z,61.27
2018-10-06T09:58:10.466Z,60.97
2018-10-06T09:59:10.459Z,62.38
2018-10-06T10:00:10.504Z,62.48
2018-10-06T10:01:10.430Z,62.24
2018-10-06T10:02:10.462Z,61.94
2018-10-06T10:03:10.411Z,61.14
2018-10-06T10:04:10.409Z,61.14
2018-10-06T10:05:10.425Z,61.04
2018-10-06T10:06:10.378Z,60.53
2018-10-06T10:07:10.448Z,61.21
2018-10-06T10:08:10.403Z,61.04
2018-10-06T10:09:10.378Z,60.61
2018-10-06T10:10:10.332Z,60.71
2018-10-06T10:11:10.321Z,60.71
2018-10-06T10:12:10.335Z,60.51
2018-10-06T10:13:10.298Z,60.21
2018-10-06T10:14:10.330Z,60.11
2018-10-06T10:15:10.306Z,60.08
2018-10-06T10:16:10.301Z,60.08
2018-10-06T10:17:10.355Z,60.18
2018-10-06T10:18:10.529Z,60.18
2018-10-06T10:19:10.273Z,60.21
2018-10-06T10:20:10.225Z,60.38
2018-10-06T10:21:10.230Z,59.98
2018-10-06T10:22:10.334Z,60.28
2018-10-06T10:23:10.195Z,59.88
2018-10-06T10:24:10.179Z,59.67
2018-10-06T10:25:10.167Z,59.67
2018-10-06T10:26:10.182Z,59.45
2018-10-06T10:27:10.154Z,59.65
2018-10-06T10:28:10.140Z,59.85
2018-10-06T10:29:10.129Z,59.55
2018-10-06T10:30:10.115Z,59.65
2018-10-06T10:31:10.150Z,59.75
2018-10-06T10:32:10.121Z,59.65
2018-10-06T10:33:10.078Z,59.65
2018-10-06T10:34:10.361Z,58.62
2018-10-06T10:35:10.329Z,58.84
2018-10-06T10:36:10.434Z,59.52
2018-10-06T10:37:10.064Z,59.22
2018-10-06T10:38:10.037Z,59.42
2018-10-06T10:39:10.116Z,58.92
2018-10-06T10:40:10.009Z,58.51
2018-10-06T10:41:09.996Z,58.92
2018-10-06T10:42:09.985Z,58.51
2018-10-06T10:43:10.016Z,57.59
2018-10-06T10:44:09.982Z,58.79
2018-10-06T10:45:09.948Z,58.49
2018-10-06T10:46:09.983Z,58.59
2018-10-06T10:47:09.945Z,58.18
2018-10-06T10:48:09.930Z,57.89
2018-10-06T10:49:09.945Z,57.89
2018-10-06T10:50:09.895Z,58.09
2018-10-06T10:51:09.882Z,57.48
2018-10-06T10:52:09.883Z,57.15
2018-10-06T10:53:09.923Z,57.39
2018-10-06T10:54:09.849Z,57.35
2018-10-06T10:55:09.846Z,57.15
2018-10-06T10:56:09.868Z,57.15
2018-10-06T10:57:09.813Z,57.26
2018-10-06T10:58:09.840Z,57.15
2018-10-06T10:59:09.866Z,57.15
2018-10-06T11:00:09.846Z,57.56
2018-10-06T11:01:09.931Z,56.93
2018-10-06T11:02:09.759Z,56.35
2018-10-06T11:03:09.767Z,57.13
2018-10-06T11:04:09.774Z,57.26
2018-10-06T11:05:09.756Z,57.33
2018-10-06T11:06:09.718Z,57.23
2018-10-06T11:07:09.752Z,56.73
2018-10-06T11:08:09.700Z,57.13
2018-10-06T11:09:09.681Z,56.83
2018-10-06T11:10:09.673Z,56.73
2018-10-06T11:11:09.752Z,56.83
2018-10-06T11:12:09.647Z,56.73
2018-10-06T11:13:09.635Z,56.40
2018-10-06T11:14:09.626Z,56.52
2018-10-06T11:15:09.647Z,57.03
2018-10-06T11:16:09.609Z,57.10
2018-10-06T11:17:09.750Z,57.00
2018-10-06T11:18:09.612Z,56.90
2018-10-06T11:19:09.573Z,57.00
2018-10-06T11:20:09.587Z,56.80
2018-10-06T11:21:09.556Z,57.00
2018-10-06T11:22:09.536Z,57.00
2018-10-06T11:23:09.533Z,56.90
2018-10-06T11:24:09.517Z,56.80
2018-10-06T11:25:09.532Z,57.50
2018-10-06T11:26:09.495Z,56.67
2018-10-06T11:27:09.491Z,56.70
2018-10-06T11:28:09.513Z,56.50
2018-10-06T11:29:09.468Z,56.17
2018-10-06T11:30:09.450Z,56.17
2018-10-06T11:31:09.436Z,56.67
2018-10-06T11:32:09.462Z,56.48
2018-10-06T11:33:09.447Z,56.57
2018-10-06T11:34:09.440Z,56.17
2018-10-06T11:35:09.440Z,55.98
2018-10-06T11:36:09.416Z,55.87
2018-10-06T11:37:09.411Z,55.77
2018-10-06T11:38:09.437Z,55.67
2018-10-06T11:39:09.360Z,55.67
2018-10-06T11:40:09.387Z,56.17
2018-10-06T11:41:09.348Z,56.35
2018-10-06T11:42:09.322Z,56.57
2018-10-06T11:43:09.311Z,56.37
2018-10-06T11:44:09.296Z,56.65
2018-10-06T11:45:09.313Z,56.37
2018-10-06T11:46:09.278Z,56.55
2018-10-06T11:47:09.273Z,56.15
2018-10-06T11:48:09.295Z,55.74
2018-10-06T11:49:09.239Z,55.85
2018-10-06T11:50:09.286Z,55.35
2018-10-06T11:51:09.225Z,55.55
2018-10-06T11:52:09.256Z,55.44
2018-10-06T11:53:09.225Z,55.65
2018-10-06T11:54:09.191Z,55.22
2018-10-06T11:55:09.174Z,54.42
2018-10-06T11:56:09.165Z,54.72
2018-10-06T11:57:09.244Z,54.52
2018-10-06T11:58:09.144Z,54.79
2018-10-06T11:59:09.165Z,54.60
2018-10-06T12:00:09.293Z,54.57
2018-10-06T12:01:09.148Z,54.27
2018-10-06T12:02:09.113Z,54.17
2018-10-06T12:03:09.088Z,53.44
2018-10-06T12:04:09.078Z,52.44
2018-10-06T12:05:09.100Z,52.84
2018-10-06T12:06:09.085Z,52.94
2018-10-06T12:07:09.078Z,52.62
2018-10-06T12:08:09.039Z,52.82
2018-10-06T12:09:09.033Z,53.12
2018-10-06T12:10:09.022Z,52.52
2018-10-06T12:11:09.030Z,52.62
2018-10-06T12:12:09.032Z,52.52
2018-10-06T12:13:08.995Z,52.00
2018-10-06T12:14:08.969Z,51.50
2018-10-06T12:15:08.988Z,51.87
2018-10-06T12:16:08.982Z,51.27
2018-10-06T12:17:08.977Z,50.65
2018-10-06T12:18:08.944Z,50.74
2018-10-06T12:19:08.944Z,51.03
2018-10-06T12:20:08.904Z,50.23
2018-10-06T12:21:08.931Z,50.20
2018-10-06T12:22:08.925Z,49.60
2018-10-06T12:23:08.876Z,49.30
2018-10-06T12:24:08.870Z,49.58
2018-10-06T12:25:08.855Z,49.28
2018-10-06T12:26:08.916Z,48.36
2018-10-06T12:27:08.858Z,49.06
2018-10-06T12:28:08.818Z,48.56
2018-10-06T12:29:08.807Z,48.54
2018-10-06T12:30:08.814Z,48.64
2018-10-06T12:31:08.812Z,47.54
2018-10-06T12:32:08.814Z,47.52
2018-10-06T12:33:08.806Z,47.32
2018-10-06T12:34:08.757Z,47.62
2018-10-06T12:35:08.792Z,46.90
2018-10-06T12:36:08.750Z,46.80
2018-10-06T12:37:08.759Z,47.20
2018-10-06T12:38:08.708Z,46.90
2018-10-06T12:39:08.741Z,46.80
2018-10-06T12:40:08.700Z,47.40
2018-10-06T12:41:08.680Z,46.92
2018-10-06T12:42:08.743Z,47.32
2018-10-06T12:43:08.656Z,47.02
2018-10-06T12:44:08.681Z,47.74
2018-10-06T12:45:08.631Z,48.46
2018-10-06T12:46:08.623Z,48.76
2018-10-06T12:47:08.620Z,48.66
2018-10-06T12:48:08.635Z,48.86
2018-10-06T12:49:08.610Z,48.56
2018-10-06T12:50:08.574Z,48.36
2018-10-06T12:51:08.569Z,48.66
2018-10-06T12:52:08.579Z,48.26